Time;durP1;ratioP1;P1;durP2;ratioP2;P2;SDS_P1;SDS_P2;PMS_P1;PMS_P2;Temp;Humidity;BMP_temperature;BMP_pressure;BME280_temperature;BME280_humidity;BME280_pressure;Samples;Min_cycle;Max_cycle;Signal;HPM_P1;HPM_P2
2024/02/17 00:01:46;;;;;;;6.70;3.40;;;;;;;-1.86;75.41;96380.98;106871;1277;22702;-71
2024/02/17 00:04:15;;;;;;;5.50;2.80;;;;;;;-1.88;76.04;96382.79;106516;1275;636626;-71
2024/02/17 00:06:44;;;;;;;4.10;2.70;;;;;;;-1.90;75.56;96386.86;106911;1275;25482;-71
2024/02/17 00:09:12;;;;;;;5.60;2.70;;;;;;;-1.92;75.40;96385.21;106673;1275;22834;-71
2024/02/17 00:11:41;;;;;;;5.70;3.00;;;;;;;-1.97;75.36;96390.16;106657;1275;25386;-71
2024/02/17 00:14:09;;;;;;;8.30;3.40;;;;;;;-2.03;75.35;96387.16;106701;1275;22519;-71
2024/02/17 00:16:37;;;;;;;7.90;3.60;;;;;;;-2.04;75.59;96389.91;107052;1275;22520;-71
2024/02/17 00:19:06;;;;;;;6.40;2.70;;;;;;;-2.03;75.22;96392.87;106913;1275;22524;-71
2024/02/17 00:21:34;;;;;;;3.80;2.50;;;;;;;-2.03;75.80;96394.41;106978;1275;24206;-71
2024/02/17 00:24:02;;;;;;;4.20;2.40;;;;;;;-2.05;75.53;96393.44;107040;1275;22639;-71
2024/02/17 00:26:31;;;;;;;5.90;2.60;;;;;;;-2.07;75.53;96397.33;107028;1275;22527;-71
2024/02/17 00:28:59;;;;;;;4.50;2.90;;;;;;;-2.09;75.60;96393.61;106925;1275;24208;-71
2024/02/17 00:31:28;;;;;;;5.50;3.00;;;;;;;-2.12;75.30;96390.07;106669;1275;22523;-71
2024/02/17 00:33:56;;;;;;;5.40;2.40;;;;;;;-2.12;75.68;96391.25;106656;1275;25604;-71
2024/02/17 00:36:25;;;;;;;4.90;2.60;;;;;;;-2.18;76.68;96393.79;106761;1275;25393;-72
2024/02/17 00:38:53;;;;;;;5.70;2.90;;;;;;;-2.21;76.16;96397.79;106657;1275;24246;-71
2024/02/17 00:41:21;;;;;;;5.70;2.70;;;;;;;-2.20;76.41;96393.55;106984;1275;24190;-72
2024/02/17 00:43:49;;;;;;;5.00;2.60;;;;;;;-2.21;76.81;96393.66;107033;1275;25498;-71
2024/02/17 00:46:18;;;;;;;4.30;2.80;;;;;;;-2.18;76.45;96396.19;106831;1275;23022;-72
2024/02/17 00:48:46;;;;;;;3.30;2.40;;;;;;;-2.12;76.46;96399.56;106630;1275;22541;-71
2024/02/17 00:51:15;;;;;;;5.70;2.60;;;;;;;-2.07;76.35;96401.83;106646;1276;22608;-71
2024/02/17 00:53:44;;;;;;;4.60;2.50;;;;;;;-2.02;76.42;96399.11;106580;1276;23306;-71
2024/02/17 00:56:13;;;;;;;5.90;3.00;;;;;;;-1.99;76.49;96401.98;106593;1276;24377;-72
2024/02/17 00:58:41;;;;;;;4.10;2.40;;;;;;;-1.96;76.63;96399.57;106779;1276;23819;-71
2024/02/17 01:01:12;;;;;;;12.60;5.20;;;;;;;-1.91;76.71;96400.79;106685;1272;25326;-72
2024/02/17 01:03:53;;;;;;;7.30;3.60;;;;;;;-1.96;76.43;96400.42;106597;1276;22530;-72
2024/02/17 01:06:23;;;;;;;3.70;2.10;;;;;;;-1.97;76.89;96399.84;106685;1276;22944;-71
2024/02/17 01:08:52;;;;;;;4.80;2.80;;;;;;;-1.94;77.17;96400.67;106637;1276;25609;-71
2024/02/17 01:11:21;;;;;;;6.90;2.30;;;;;;;-1.90;77.15;96396.00;106636;1276;24365;-72
2024/02/17 01:13:49;;;;;;;4.30;2.60;;;;;;;-1.87;77.03;96396.80;106586;1276;24381;-71
2024/02/17 01:16:17;;;;;;;3.20;1.80;;;;;;;-1.80;77.16;96401.59;106585;1276;22548;-71
2024/02/17 01:18:46;;;;;;;6.50;3.40;;;;;;;-1.79;76.82;96400.06;106702;1276;26564;-71
2024/02/17 01:21:15;;;;;;;12.20;6.00;;;;;;;-1.83;77.16;96401.65;106615;1276;24304;-71
2024/02/17 01:23:43;;;;;;;40.50;19.50;;;;;;;-1.93;76.36;96404.33;106953;1276;24239;-72
2024/02/17 01:26:12;;;;;;;4.10;2.40;;;;;;;-1.98;76.89;96399.81;106784;1276;24325;-71
2024/02/17 01:28:40;;;;;;;4.40;2.10;;;;;;;-1.93;76.91;96396.05;106600;1276;22523;-72
2024/02/17 01:31:08;;;;;;;3.90;2.20;;;;;;;-1.90;77.01;96397.17;106603;1276;22846;-71
2024/02/17 01:33:36;;;;;;;5.20;2.70;;;;;;;-1.85;77.20;96396.73;106409;1263;22546;-71
2024/02/17 01:36:13;;;;;;;4.20;2.50;;;;;;;-1.80;76.93;96395.56;106743;1276;25316;-71
2024/02/17 01:38:42;;;;;;;3.50;2.10;;;;;;;-1.80;76.54;96397.81;106649;1276;22779;-71
2024/02/17 01:41:10;;;;;;;3.80;2.20;;;;;;;-1.83;76.17;96400.41;106664;1276;22984;-71
2024/02/17 01:43:38;;;;;;;3.20;1.80;;;;;;;-1.92;76.23;96400.02;106621;1276;22535;-71
2024/02/17 01:46:07;;;;;;;5.30;2.30;;;;;;;-2.05;76.42;96396.39;106581;1276;25351;-71
2024/02/17 01:48:36;;;;;;;6.70;2.80;;;;;;;-2.10;76.75;96395.32;106634;1276;25310;-71
2024/02/17 01:51:09;;;;;;;5.60;3.20;;;;;;;-2.14;77.23;96396.88;106765;1276;22667;-71
2024/02/17 01:53:40;;;;;;;6.70;3.00;;;;;;;-2.24;77.44;96394.40;106659;1276;25501;-71
2024/02/17 01:56:10;;;;;;;6.00;2.90;;;;;;;-2.26;77.37;96393.27;106660;1276;22533;-71
2024/02/17 01:58:38;;;;;;;5.20;2.50;;;;;;;-2.28;77.36;96400.95;106598;1276;22650;-71
2024/02/17 02:01:07;;;;;;;5.00;2.50;;;;;;;-2.28;76.99;96398.66;106588;1276;25406;-71
2024/02/17 02:03:36;;;;;;;3.70;2.00;;;;;;;-2.29;76.89;96396.91;106645;1276;26640;-71
2024/02/17 02:06:05;;;;;;;6.00;2.40;;;;;;;-2.32;76.41;96393.52;106635;1276;22530;-71
2024/02/17 02:08:33;;;;;;;3.30;1.50;;;;;;;-2.36;76.31;96392.64;106444;1276;25325;-71
2024/02/17 02:11:03;;;;;;;2.70;1.80;;;;;;;-2.40;76.35;96391.10;106614;1276;24037;-71
2024/02/17 02:13:31;;;;;;;6.30;2.80;;;;;;;-2.44;77.43;96395.06;106567;1276;25496;-71
2024/02/17 02:15:59;;;;;;;6.50;3.20;;;;;;;-2.54;77.08;96395.83;106628;1276;22636;-71
2024/02/17 02:18:28;;;;;;;4.90;2.30;;;;;;;-2.57;78.24;96393.27;106644;1276;25201;-71
2024/02/17 02:20:56;;;;;;;4.20;2.30;;;;;;;-2.57;77.80;96390.02;106565;1276;22527;-71
2024/02/17 02:23:25;;;;;;;2.90;1.90;;;;;;;-2.55;77.56;96388.88;106660;1276;22554;-71
2024/02/17 02:25:56;;;;;;;2.10;1.50;;;;;;;-2.52;77.52;96389.17;106624;1276;22639;-71
2024/02/17 02:28:25;;;;;;;6.10;2.00;;;;;;;-2.48;78.03;96389.52;106621;1276;23880;-71
2024/02/17 02:30:57;;;;;;;2.90;1.80;;;;;;;-2.46;78.34;96387.57;106597;1276;22526;-71
2024/02/17 02:33:26;;;;;;;4.10;1.80;;;;;;;-2.47;78.15;96386.16;106623;1276;22523;-71
2024/02/17 02:35:55;;;;;;;3.20;1.90;;;;;;;-2.48;78.03;96383.16;106617;1276;22563;-71
2024/02/17 02:38:23;;;;;;;2.90;1.70;;;;;;;-2.49;78.68;96381.92;106534;1276;24240;-71
2024/02/17 02:40:51;;;;;;;3.70;1.80;;;;;;;-2.41;78.71;96381.60;106632;1276;25495;-71
2024/02/17 02:43:19;;;;;;;6.60;2.70;;;;;;;-2.35;78.45;96378.73;106684;1276;24234;-72
2024/02/17 02:45:48;;;;;;;3.30;2.20;;;;;;;-2.36;78.50;96378.86;106638;1264;22553;-71
2024/02/17 02:48:16;;;;;;;3.20;2.00;;;;;;;-2.37;78.51;96384.88;106622;1276;22534;-71
2024/02/17 02:50:44;;;;;;;3.50;2.50;;;;;;;-2.32;78.66;96384.38;106660;1276;24252;-71
2024/02/17 02:53:13;;;;;;;10.40;4.50;;;;;;;-2.34;78.38;96387.21;106402;1276;25426;-71
2024/02/17 02:55:41;;;;;;;4.80;2.60;;;;;;;-2.28;78.79;96386.12;106620;1276;22533;-71
2024/02/17 02:58:09;;;;;;;3.60;2.10;;;;;;;-2.26;78.36;96388.43;106667;1276;25427;-71
2024/02/17 03:00:37;;;;;;;39.40;14.20;;;;;;;-2.25;78.33;96386.42;106622;1276;24263;-71
2024/02/17 03:03:06;;;;;;;20.30;7.40;;;;;;;-2.31;78.48;96388.20;106652;1276;26561;-71
2024/02/17 03:05:34;;;;;;;11.00;4.50;;;;;;;-2.31;78.86;96392.35;106619;1276;22631;-71
2024/02/17 03:08:04;;;;;;;9.50;3.60;;;;;;;-2.28;78.86;96392.48;106621;1276;22543;-71
2024/02/17 03:10:32;;;;;;;3.30;1.90;;;;;;;-2.27;78.69;96391.50;106570;1276;25328;-71
2024/02/17 03:13:00;;;;;;;4.20;1.90;;;;;;;-2.22;78.66;96393.28;106618;1276;25405;-71
2024/02/17 03:15:28;;;;;;;5.10;1.70;;;;;;;-2.21;78.28;96390.73;106624;1276;22530;-71
2024/02/17 03:17:57;;;;;;;5.50;2.40;;;;;;;-2.20;77.98;96396.27;106620;1276;22645;-71
2024/02/17 03:20:25;;;;;;;4.90;2.20;;;;;;;-2.20;77.80;96395.77;106619;1276;22516;-71
2024/02/17 03:22:53;;;;;;;3.30;1.50;;;;;;;-2.23;77.50;96398.41;106613;1276;23429;-71
2024/02/17 03:25:22;;;;;;;2.40;1.60;;;;;;;-2.29;77.29;96397.60;106659;1276;25405;-71
2024/02/17 03:27:50;;;;;;;4.00;1.90;;;;;;;-2.38;77.31;96404.27;106629;1276;25361;-71
2024/02/17 03:30:18;;;;;;;3.80;1.80;;;;;;;-2.45;77.59;96403.44;106589;1276;24092;-71
2024/02/17 03:32:47;;;;;;;2.50;1.60;;;;;;;-2.49;78.04;96401.02;106402;1267;22538;-71
2024/02/17 03:35:15;;;;;;;2.40;1.40;;;;;;;-2.53;78.00;96402.73;106584;1276;22545;-71
2024/02/17 03:37:43;;;;;;;4.20;2.50;;;;;;;-2.58;77.77;96409.27;106582;1276;22804;-71
2024/02/17 03:40:12;;;;;;;5.90;2.50;;;;;;;-2.62;78.31;96410.63;106612;1276;25474;-71
2024/02/17 03:42:40;;;;;;;5.90;2.00;;;;;;;-2.70;78.10;96414.05;106569;1276;24293;-71
2024/02/17 03:45:09;;;;;;;3.80;1.80;;;;;;;-2.76;78.06;96416.52;106578;1276;22617;-71
2024/02/17 03:47:37;;;;;;;2.50;1.50;;;;;;;-2.77;78.19;96415.63;106700;1276;25220;-72
2024/02/17 03:50:06;;;;;;;2.90;1.40;;;;;;;-2.76;77.95;96419.12;106617;1276;24057;-71
2024/02/17 03:52:35;;;;;;;3.50;1.80;;;;;;;-2.76;77.96;96419.13;106678;1276;22600;-71
2024/02/17 03:55:03;;;;;;;5.60;3.30;;;;;;;-2.79;78.66;96419.14;106622;1276;22944;-71
2024/02/17 03:57:32;;;;;;;4.00;2.20;;;;;;;-2.86;78.74;96418.83;106595;1272;22554;-71
2024/02/17 04:00:00;;;;;;;3.70;1.90;;;;;;;-2.89;78.65;96421.80;106599;1276;22739;-71
2024/02/17 04:02:28;;;;;;;2.50;1.60;;;;;;;-2.86;78.57;96419.52;106615;1276;23122;-72
2024/02/17 04:04:56;;;;;;;2.70;1.50;;;;;;;-2.85;78.44;96419.93;106619;1276;24244;-71
2024/02/17 04:07:25;;;;;;;5.40;2.10;;;;;;;-2.88;79.20;96424.78;106468;1276;22529;-71
2024/02/17 04:09:53;;;;;;;2.50;1.70;;;;;;;-2.96;78.68;96426.83;106576;1276;24385;-71
2024/02/17 04:12:22;;;;;;;3.30;1.60;;;;;;;-3.00;78.57;96427.83;106571;1276;24246;-71
2024/02/17 04:14:51;;;;;;;2.60;1.50;;;;;;;-2.99;78.56;96431.14;106414;1276;22651;-71
2024/02/17 04:17:19;;;;;;;3.60;1.80;;;;;;;-2.98;78.74;96431.02;106405;1276;22783;-71
2024/02/17 04:19:47;;;;;;;4.30;2.40;;;;;;;-2.98;78.85;96436.16;106592;1276;25374;-71
2024/02/17 04:22:16;;;;;;;2.60;1.30;;;;;;;-3.00;79.17;96431.63;106631;1276;22530;-71
2024/02/17 04:24:45;;;;;;;2.90;1.40;;;;;;;-3.01;78.65;96432.25;106591;1276;24254;-71
2024/02/17 04:27:14;;;;;;;4.30;1.60;;;;;;;-3.01;78.81;96429.81;106572;1259;22523;-71
2024/02/17 04:29:42;;;;;;;4.40;2.30;;;;;;;-3.05;78.56;96431.75;106623;1276;22531;-71
2024/02/17 04:32:11;;;;;;;6.60;3.90;;;;;;;-3.07;79.49;96432.14;106578;1276;25392;-71
2024/02/17 04:34:39;;;;;;;9.90;5.30;;;;;;;-3.15;80.04;96434.02;106621;1276;22568;-71
2024/02/17 04:37:08;;;;;;;2.60;1.50;;;;;;;-3.19;79.54;96432.12;106615;1276;22531;-71
2024/02/17 04:39:36;;;;;;;2.90;1.50;;;;;;;-3.13;79.47;96435.13;106590;1276;25236;-71
2024/02/17 04:42:05;;;;;;;3.10;2.20;;;;;;;-3.09;79.64;96432.24;106697;1276;22531;-71
2024/02/17 04:44:33;;;;;;;3.90;1.90;;;;;;;-3.07;79.71;96434.56;106623;1276;24305;-71
2024/02/17 04:47:02;;;;;;;3.70;1.90;;;;;;;-3.06;79.53;96433.58;106615;1276;22535;-71
2024/02/17 04:49:30;;;;;;;2.20;1.20;;;;;;;-3.02;79.93;96432.02;106609;1276;22520;-71
2024/02/17 04:51:59;;;;;;;2.70;1.50;;;;;;;-2.96;79.88;96431.98;106677;1276;22538;-71
2024/02/17 04:54:27;;;;;;;1.90;1.30;;;;;;;-2.90;79.97;96436.03;106648;1276;26094;-71
2024/02/17 04:56:55;;;;;;;7.90;3.70;;;;;;;-2.88;79.94;96437.31;106636;1276;22523;-71
2024/02/17 04:59:23;;;;;;;3.80;2.30;;;;;;;-2.93;79.92;96435.91;106614;1276;22614;-71
2024/02/17 05:01:52;;;;;;;2.50;1.60;;;;;;;-2.90;80.22;96437.77;106625;1276;25315;-72
2024/02/17 05:04:20;;;;;;;2.50;1.70;;;;;;;-2.83;80.17;96433.27;106680;1276;25475;-71
2024/02/17 05:06:50;;;;;;;3.00;1.60;;;;;;;-2.82;79.76;96440.17;106598;1276;22551;-71
2024/02/17 05:09:19;;;;;;;3.20;1.50;;;;;;;-2.82;79.86;96436.56;106581;1276;22572;-71
2024/02/17 05:11:47;;;;;;;5.60;2.10;;;;;;;-2.77;80.25;96430.42;106690;1272;22524;-71
2024/02/17 05:14:15;;;;;;;48.10;22.70;;;;;;;-2.77;79.94;96437.30;106606;1276;22574;-71
2024/02/17 05:16:45;;;;;;;23.70;10.90;;;;;;;-2.83;79.81;96440.66;106548;1276;24066;-71
2024/02/17 05:19:14;;;;;;;17.20;8.10;;;;;;;-2.80;80.28;96439.94;106671;1276;22525;-71
2024/02/17 05:21:43;;;;;;;2.70;1.60;;;;;;;-2.78;80.07;96443.65;106810;1276;22530;-71
2024/02/17 05:24:12;;;;;;;9.90;3.30;;;;;;;-2.69;80.28;96445.78;106677;1276;24371;-71
2024/02/17 05:26:40;;;;;;;3.10;1.80;;;;;;;-2.67;79.76;96446.75;106559;1276;22526;-71
2024/02/17 05:29:09;;;;;;;2.40;1.20;;;;;;;-2.66;79.75;96449.55;106560;1276;22572;-71
2024/02/17 05:31:37;;;;;;;7.50;4.10;;;;;;;-2.63;79.70;96450.02;106634;1266;22516;-71
2024/02/17 05:34:06;;;;;;;97.60;40.70;;;;;;;-2.75;79.41;96458.93;106635;1276;22480;-71
2024/02/17 05:36:34;;;;;;;31.50;13.50;;;;;;;-2.84;79.33;96461.27;106664;1276;23722;-71
2024/02/17 05:39:03;;;;;;;46.70;19.00;;;;;;;-2.91;79.56;96461.95;106434;1276;22649;-71
2024/02/17 05:41:31;;;;;;;14.20;6.30;;;;;;;-2.97;79.42;96466.69;106582;1276;25246;-71
2024/02/17 05:43:59;;;;;;;3.60;1.60;;;;;;;-2.99;79.70;96464.88;106619;1276;24372;-71
2024/02/17 05:46:27;;;;;;;2.70;1.80;;;;;;;-2.99;80.07;96464.87;106438;1276;25508;-71
2024/02/17 05:48:56;;;;;;;2.80;1.30;;;;;;;-2.96;79.97;96472.06;106589;1276;22588;-71
2024/02/17 05:51:24;;;;;;;5.50;1.50;;;;;;;-2.99;79.67;96474.35;106602;1276;25405;-71
2024/02/17 05:53:53;;;;;;;3.80;1.70;;;;;;;-2.99;79.68;96476.77;106632;1276;25390;-71
2024/02/17 05:56:21;;;;;;;2.70;1.70;;;;;;;-2.97;79.74;96477.22;106581;1276;22795;-71
2024/02/17 05:58:49;;;;;;;3.40;1.80;;;;;;;-2.94;79.78;96480.45;106605;1276;24487;-71
2024/02/17 06:01:18;;;;;;;12.80;4.90;;;;;;;-2.93;80.30;96480.66;106627;1276;25274;-71
2024/02/17 06:03:46;;;;;;;7.40;2.60;;;;;;;-2.92;80.33;96483.81;106655;1276;22537;-71
2024/02/17 06:06:15;;;;;;;1.70;1.10;;;;;;;-2.89;80.01;96482.40;106598;1276;22558;-71
2024/02/17 06:08:44;;;;;;;30.60;12.60;;;;;;;-2.83;80.13;96486.48;106592;1276;25481;-71
2024/02/17 06:11:12;;;;;;;15.70;6.90;;;;;;;-2.82;80.57;96489.45;106588;1275;24311;-71
2024/02/17 06:13:41;;;;;;;11.30;5.80;;;;;;;-2.83;80.70;96485.61;106661;1276;22671;-71
2024/02/17 06:16:11;;;;;;;16.20;8.30;;;;;;;-2.78;80.53;96491.17;106560;1276;22521;-71
2024/02/17 06:21:27;;;;;;;2.40;1.30;;;;;;;-2.65;80.58;96491.29;106629;1276;22554;-71
2024/02/17 06:23:57;;;;;;;2.30;1.50;;;;;;;-2.56;80.60;96493.04;106726;1276;25398;-71
2024/02/17 06:26:30;;;;;;;1.90;1.40;;;;;;;-2.55;80.26;96493.95;106599;1276;25374;-71
2024/02/17 06:29:03;;;;;;;3.40;1.30;;;;;;;-2.48;80.49;96491.17;106658;1276;24474;-71
2024/02/17 06:31:33;;;;;;;;;;;;;;;-2.37;80.56;96489.27;106703;1276;22550;-71
2024/02/17 06:34:05;;;;;;;10.40;4.80;;;;;;;-2.31;81.12;96491.09;106645;1276;24381;-71
2024/02/17 06:36:34;;;;;;;3.20;1.80;;;;;;;-2.22;81.60;96497.02;106676;1276;25749;-71
2024/02/17 06:39:03;;;;;;;4.80;2.00;;;;;;;-2.20;81.86;96503.33;106419;1260;24398;-71
2024/02/17 06:41:32;;;;;;;6.50;4.20;;;;;;;-2.13;82.12;96507.92;106701;1276;25486;-71
2024/02/17 06:44:01;;;;;;;5.20;2.50;;;;;;;-1.96;82.25;96507.48;106598;1276;23007;-71
2024/02/17 06:46:29;;;;;;;3.50;1.90;;;;;;;-1.76;82.03;96507.15;106608;1276;22592;-71
2024/02/17 06:48:58;;;;;;;7.30;3.70;;;;;;;-1.63;81.52;96505.46;106473;1276;25233;-71
2024/02/17 06:51:27;;;;;;;10.00;5.00;;;;;;;-1.48;81.46;96504.70;106629;1276;25334;-71
2024/02/17 06:53:55;;;;;;;4.20;2.00;;;;;;;-1.36;81.31;96507.09;106644;1276;22530;-71
2024/02/17 06:56:24;;;;;;;3.70;2.50;;;;;;;-1.31;81.21;96511.13;106627;1276;22581;-71
2024/02/17 06:58:52;;;;;;;10.70;5.40;;;;;;;-1.22;80.99;96510.11;106576;1276;22534;-71
2024/02/17 07:01:20;;;;;;;6.20;3.00;;;;;;;-1.06;81.28;96513.02;106620;1276;22539;-72
2024/02/17 07:03:48;;;;;;;5.70;3.10;;;;;;;-0.88;81.36;96512.36;106655;1276;24201;-71
2024/02/17 07:06:18;;;;;;;10.00;5.20;;;;;;;-0.77;80.27;96510.55;106573;1276;25359;-72
2024/02/17 07:08:48;;;;;;;6.30;3.40;;;;;;;-0.74;80.19;96513.79;106608;1254;22547;-72
2024/02/17 07:11:16;;;;;;;9.10;5.00;;;;;;;-0.70;80.19;96516.33;106691;1254;22593;-72
2024/02/17 07:13:44;;;;;;;12.80;5.10;;;;;;;-0.64;80.50;96514.85;106617;1276;23912;-72
2024/02/17 07:16:13;;;;;;;13.60;6.50;;;;;;;-0.52;80.88;96510.83;106586;1276;25470;-72
2024/02/17 07:18:43;;;;;;;14.00;6.40;;;;;;;-0.38;80.49;96510.66;106624;1276;24222;-73
2024/02/17 07:21:12;;;;;;;19.10;8.30;;;;;;;-0.28;80.30;96508.79;106573;1266;22640;-72
2024/02/17 07:23:41;;;;;;;13.60;7.10;;;;;;;-0.09;80.68;96509.17;106688;1276;22537;-72
2024/02/17 07:26:09;;;;;;;17.20;9.20;;;;;;;0.09;80.39;96510.70;106613;1276;22532;-72
2024/02/17 07:28:38;;;;;;;20.40;10.30;;;;;;;0.25;80.03;96506.05;106684;1276;25201;-72
2024/02/17 07:31:06;;;;;;;24.00;10.70;;;;;;;0.38;79.88;96509.99;106663;1276;22560;-73
2024/02/17 07:33:35;;;;;;;23.00;10.30;;;;;;;0.58;79.58;96508.77;106642;1276;24235;-72
2024/02/17 07:36:04;;;;;;;22.50;10.90;;;;;;;0.71;78.64;96507.15;106700;1276;22652;-72
2024/02/17 07:38:32;;;;;;;21.70;10.30;;;;;;;0.80;78.34;96507.98;106624;1276;22716;-72
2024/02/17 07:41:01;;;;;;;19.80;10.30;;;;;;;0.90;78.39;96509.69;106602;1276;25224;-72
2024/02/17 07:43:29;;;;;;;22.80;11.80;;;;;;;1.02;78.22;96511.30;106581;1276;24224;-72
2024/02/17 07:45:57;;;;;;;25.60;11.40;;;;;;;1.12;77.65;96513.02;106628;1265;24260;-72
2024/02/17 07:48:25;;;;;;;23.60;11.40;;;;;;;1.19;77.40;96509.27;106629;1276;25487;-72
2024/02/17 07:50:54;;;;;;;21.60;10.10;;;;;;;1.29;76.62;96506.98;106668;1276;22529;-72
2024/02/17 07:53:22;;;;;;;23.20;11.60;;;;;;;1.45;76.87;96504.89;106630;1276;22530;-72
2024/02/17 07:55:51;;;;;;;26.80;13.80;;;;;;;1.62;76.46;96500.20;106628;1276;22526;-72
2024/02/17 07:58:19;;;;;;;25.10;11.70;;;;;;;1.80;76.72;96498.31;106610;1276;24223;-72
2024/02/17 08:00:47;;;;;;;22.80;12.60;;;;;;;1.99;76.34;96497.84;106664;1276;25919;-72
2024/02/17 08:03:17;;;;;;;19.90;11.00;;;;;;;2.17;74.37;96496.61;106612;1276;25497;-72
2024/02/17 08:05:45;;;;;;;24.90;13.40;;;;;;;2.32;72.49;96496.34;106759;1276;25367;-72
2024/02/17 08:08:14;;;;;;;22.70;11.80;;;;;;;2.46;72.80;96497.75;106650;1276;22538;-72
2024/02/17 08:10:43;;;;;;;26.00;12.90;;;;;;;2.57;73.13;96495.97;106603;1276;25319;-72
2024/02/17 08:13:12;;;;;;;22.30;10.70;;;;;;;2.70;73.38;96495.10;106635;1268;24530;-72
2024/02/17 08:15:40;;;;;;;16.80;10.10;;;;;;;2.86;73.47;96496.39;106648;1276;22676;-72
2024/02/17 08:18:08;;;;;;;18.00;8.80;;;;;;;3.05;73.41;96499.10;106613;1276;25363;-72
2024/02/17 08:20:37;;;;;;;18.20;9.30;;;;;;;3.23;72.90;96495.91;106666;1276;24238;-72
2024/02/17 08:23:06;;;;;;;24.20;11.50;;;;;;;3.41;72.63;96493.20;106594;1276;25333;-72
2024/02/17 08:25:34;;;;;;;21.70;12.60;;;;;;;3.58;71.77;96490.80;106615;1276;22639;-72
2024/02/17 08:28:02;;;;;;;16.80;8.80;;;;;;;3.73;71.88;96492.20;106705;1276;22530;-73
2024/02/17 08:30:30;;;;;;;14.70;8.60;;;;;;;3.90;71.56;96490.30;106581;1276;22645;-72
2024/02/17 08:32:59;;;;;;;14.10;8.30;;;;;;;4.08;70.56;96491.38;106599;1276;23889;-72
2024/02/17 08:35:27;;;;;;;17.10;9.50;;;;;;;4.24;70.19;96489.80;106679;1276;24246;-72
2024/02/17 08:37:55;;;;;;;15.80;9.30;;;;;;;4.43;70.19;96493.46;106618;1276;22537;-72
2024/02/17 08:40:24;;;;;;;23.40;13.00;;;;;;;4.60;70.07;96491.73;106594;1276;24510;-72
2024/02/17 08:42:53;;;;;;;22.60;13.20;;;;;;;4.78;68.88;96492.23;106652;1276;24063;-72
2024/02/17 08:45:21;;;;;;;29.60;18.40;;;;;;;4.93;68.97;96495.64;106599;1276;22536;-72
2024/02/17 08:47:49;;;;;;;29.50;19.10;;;;;;;5.11;68.49;96491.08;106698;1276;22583;-72
2024/02/17 08:50:20;;;;;;;21.70;13.70;;;;;;;5.31;67.68;96486.52;106649;1276;23069;-72
2024/02/17 08:52:48;;;;;;;19.50;11.80;;;;;;;5.49;67.34;96483.82;106647;1267;22543;-72
2024/02/17 08:55:17;;;;;;;16.10;10.00;;;;;;;5.66;66.74;96478.16;106639;1276;24350;-72
2024/02/17 08:57:46;;;;;;;19.20;10.70;;;;;;;5.83;66.45;96480.65;106617;1254;23024;-72
2024/02/17 09:00:15;;;;;;;20.60;11.80;;;;;;;6.00;66.39;96484.59;106610;1276;22653;-72
2024/02/17 09:02:44;;;;;;;19.70;12.30;;;;;;;6.17;65.35;96487.08;106630;1276;22652;-73
2024/02/17 09:05:13;;;;;;;19.70;11.30;;;;;;;6.35;65.84;96480.84;106688;1276;22579;-72
2024/02/17 09:07:41;;;;;;;28.40;15.20;;;;;;;6.53;64.52;96478.95;106601;1276;23239;-72
2024/02/17 09:10:15;;;;;;;23.80;14.50;;;;;;;6.70;64.26;96481.59;106712;1276;22635;-72
2024/02/17 09:12:44;;;;;;;23.60;15.40;;;;;;;6.89;64.56;96476.17;106604;1276;22634;-73
2024/02/17 09:15:12;;;;;;;25.50;15.60;;;;;;;7.10;64.44;96472.88;106598;1276;24261;-72
2024/02/17 09:17:41;;;;;;;27.60;14.90;;;;;;;7.30;63.43;96472.89;106650;1273;25450;-73
2024/02/17 09:20:11;;;;;;;25.40;14.20;;;;;;;7.51;62.74;96467.80;106650;1276;24263;-72
2024/02/17 09:22:39;;;;;;;26.70;14.60;;;;;;;7.73;62.39;96469.34;106636;1276;24220;-73
2024/02/17 09:25:07;;;;;;;46.30;23.40;;;;;;;7.95;60.70;96467.03;106608;1266;22747;-72
2024/02/17 09:27:35;;;;;;;30.10;19.60;;;;;;;8.17;58.83;96466.96;106631;1276;25246;-72
2024/02/17 09:30:05;;;;;;;17.00;11.60;;;;;;;8.37;54.28;96467.94;106711;1276;22650;-72
2024/02/17 09:32:33;;;;;;;12.90;8.20;;;;;;;8.57;51.62;96466.63;106690;1276;22539;-73
2024/02/17 09:35:02;;;;;;;21.00;12.80;;;;;;;8.75;50.69;96466.69;106682;1276;22537;-73
2024/02/17 09:37:30;;;;;;;16.30;11.20;;;;;;;8.91;49.97;96465.14;106685;1276;22848;-72
2024/02/17 09:39:59;;;;;;;8.70;5.50;;;;;;;9.07;48.54;96459.20;106581;1276;22659;-72
2024/02/17 09:42:28;;;;;;;10.40;6.30;;;;;;;9.20;48.61;96460.80;106912;1276;22560;-72
2024/02/17 09:44:56;;;;;;;8.70;5.80;;;;;;;9.32;47.07;96457.64;106697;1260;24378;-72
2024/02/17 09:47:25;;;;;;;10.00;6.20;;;;;;;9.43;46.59;96453.06;106579;1276;22536;-72
2024/02/17 09:49:55;;;;;;;10.20;5.70;;;;;;;9.55;45.64;96449.90;106622;1276;22611;-73
2024/02/17 09:52:26;;;;;;;9.00;6.20;;;;;;;9.70;45.31;96450.40;106705;1265;25392;-72
2024/02/17 09:54:57;;;;;;;8.80;5.60;;;;;;;9.87;46.53;96444.58;106661;1276;22528;-72
2024/02/17 09:57:25;;;;;;;8.60;5.30;;;;;;;10.04;44.85;96443.65;106616;1276;22735;-72
2024/02/17 10:00:10;;;;;;;38.90;22.40;;;;;;;10.16;43.32;96441.33;106610;1260;22676;-73
2024/02/17 10:02:40;;;;;;;13.00;9.10;;;;;;;10.25;43.16;96438.48;106631;1276;25335;-73
2024/02/17 10:05:09;;;;;;;15.30;9.70;;;;;;;10.35;41.97;96436.18;106704;1276;22653;-72
2024/02/17 10:07:51;;;;;;;7.60;4.30;;;;;;;10.44;41.65;96433.34;106625;1276;25403;-72
2024/02/17 10:10:21;;;;;;;9.90;6.90;;;;;;;10.57;42.56;96431.70;106653;1276;24234;-73
2024/02/17 10:12:57;;;;;;;9.50;5.30;;;;;;;10.70;41.00;96426.88;106735;1276;25410;-72
2024/02/17 10:15:26;;;;;;;8.40;6.10;;;;;;;10.79;41.02;96424.00;106332;1276;25503;-72
2024/02/17 10:17:56;;;;;;;11.60;8.60;;;;;;;10.90;41.65;96423.59;106616;1276;23012;-72
2024/02/17 10:20:24;;;;;;;9.00;6.10;;;;;;;11.04;42.17;96423.14;106626;1266;22534;-73
2024/02/17 10:22:53;;;;;;;9.10;6.30;;;;;;;11.16;41.04;96424.27;106725;1276;23140;-73
2024/02/17 10:25:21;;;;;;;11.50;6.70;;;;;;;11.29;40.82;96418.73;106717;1276;22748;-72
2024/02/17 10:27:53;;;;;;;7.60;4.80;;;;;;;11.37;39.19;96419.52;106947;1276;25356;-73
2024/02/17 10:30:21;;;;;;;7.70;4.60;;;;;;;11.44;39.17;96421.23;106792;1276;22753;-72
2024/02/17 10:32:50;;;;;;;11.50;5.30;;;;;;;11.54;39.24;96416.56;106623;1276;22548;-74
2024/02/17 10:35:19;;;;;;;16.10;8.10;;;;;;;11.78;39.18;96416.16;106673;1259;22536;-72
2024/02/17 10:37:52;;;;;;;11.80;5.90;;;;;;;12.10;38.22;96413.55;106831;1276;24101;-72
2024/02/17 10:40:22;;;;;;;9.70;5.70;;;;;;;12.49;37.56;96413.62;106718;1276;22624;-73
2024/02/17 10:42:51;;;;;;;10.50;5.60;;;;;;;12.84;36.36;96407.83;106642;1276;22556;-73
2024/02/17 10:45:20;;;;;;;7.50;4.30;;;;;;;13.25;36.11;96404.05;106645;1276;23149;-73
2024/02/17 10:48:04;;;;;;;9.90;4.80;;;;;;;13.67;35.48;96403.36;106645;1276;24066;-73
2024/02/17 10:50:37;;;;;;;6.60;4.10;;;;;;;14.16;34.80;96402.80;106663;1276;24266;-73
2024/02/17 10:53:15;;;;;;;7.40;4.20;;;;;;;14.53;34.87;96401.88;106608;1276;22557;-73
2024/02/17 10:55:45;;;;;;;9.10;4.40;;;;;;;14.99;35.21;96398.20;106731;1276;22652;-71
2024/02/17 10:58:17;;;;;;;8.10;5.30;;;;;;;15.45;33.89;96400.85;106640;1276;25332;-71
2024/02/17 11:00:47;;;;;;;10.50;6.00;;;;;;;15.72;32.37;96395.20;106604;1276;22555;-71
2024/02/17 11:03:19;;;;;;;9.30;5.90;;;;;;;16.09;32.69;96393.36;106731;1276;25305;-71
2024/02/17 11:05:51;;;;;;;7.10;4.40;;;;;;;16.42;30.71;96390.64;106670;1272;24191;-72
2024/02/17 11:08:20;;;;;;;6.80;4.40;;;;;;;16.58;30.42;96385.55;106636;1276;25287;-72
2024/02/17 11:10:48;;;;;;;8.10;5.20;;;;;;;16.76;31.39;96384.52;106673;1276;22782;-72
2024/02/17 11:13:22;;;;;;;15.40;6.70;;;;;;;17.11;30.67;96381.67;106598;1276;22670;-71
2024/02/17 11:15:58;;;;;;;8.60;5.00;;;;;;;17.34;29.84;96381.27;106747;1276;22533;-72
2024/02/17 11:18:26;;;;;;;8.20;4.20;;;;;;;17.45;28.43;96382.86;106640;1276;24425;-72
2024/02/17 11:20:56;;;;;;;17.80;9.10;;;;;;;17.57;28.08;96378.74;106685;1276;25322;-72
2024/02/17 11:23:36;;;;;;;16.80;8.40;;;;;;;17.90;28.44;96372.11;106628;1276;25478;-72
2024/02/17 11:26:14;;;;;;;9.30;5.60;;;;;;;18.27;27.97;96371.33;106590;1276;22530;-71
2024/02/17 11:28:56;;;;;;;7.60;4.50;;;;;;;18.51;27.68;96365.27;106655;1276;25318;-72
2024/02/17 11:31:28;;;;;;;18.10;9.40;;;;;;;18.67;27.52;96364.88;106600;1276;24099;-71
2024/02/17 11:34:01;;;;;;;10.30;6.00;;;;;;;18.96;27.66;96363.03;106637;1276;25697;-72